Aérodrome :
LOGIN :

S'inscrire | Disclaimer

   EN    FR    IT 

 










Légende :    VFR   VFR Marginal   IFR   IFR Intensif   IFR Très Intensif
Visi : 
Plafond : 
>= 8 km
>= 3000ft
5 à 8 km
1000 à 3000 ft
1500m à 5 km
500 à 1000 ft
800 à 1500m
200 à 500 ft
< 800m
< 200 ft
Symboles :   Orages  Brouillard  Fortes neiges  Fortes précipitations  Vent > 20 kt
SIGMETs :   Divers  Orages  Givrage  Turbulence  Onde Orograph.  Cendres Volcan.







- Altitude de l'aérodrome : 464 ft
- Code IATA : EVX
- Voir les cartes d'approche


LFOE - Evreux

DERNIER METAR :
  • 161500Z AUTO 18006KT CAVOK 15/06 Q1024 NOSIG

METARs EXPIRÉS :
  • 161430Z AUTO 18007KT CAVOK 15/06 Q1025 NOSIG
  • 161400Z AUTO 18008KT CAVOK 15/05 Q1025 NOSIG
  • 161330Z AUTO 18007KT CAVOK 15/05 Q1025 NOSIG
  • 161300Z AUTO 18008KT CAVOK 14/05 Q1025 NOSIG
  • 161230Z AUTO 19007KT 160V220 CAVOK 13/07 Q1026 NOSIG

TAF TAF LFOE
Valide du 16 à 15h jusqu'au 17 à 15h UTC


161400Z 1615/1715 19008KT CAVOK
BECMG 1700/1702 4000 BR
PROB30
TEMPO 1705/1707 0800 FG
BECMG 1708/1710 CAVOK
TEMPO 1711/1715 19010G20KT
Pas de NOTAMs connus pour ce terrain.



MET'MAP, la Météo Aéronautique d'un coup d'oeil ! - Copyright ORBIFLY Décembre 2007 - Disclaimer

ORBIFLY MET'MAP TEAM :

Programmation & Développement : Alexandra Zaïnal
Conception & Développement : Baudouin d'Aumeries
Co-Programmation & Développement : Marc-Olivier Méhu
Soutien technique & logistique : Manuel Goepfert

Contact : metmap@orbifly.com




SOURCES & CREDITS :

   NOAA